Time;durP1;ratioP1;P1;durP2;ratioP2;P2;SDS_P1;SDS_P2;PMS_P1;PMS_P2;Temp;Humidity;BMP_temperature;BMP_pressure;BME280_temperature;BME280_humidity;BME280_pressure;Samples;Min_cycle;Max_cycle;Signal;HPM_P1;HPM_P2
2021/03/30 00:01:52;;;;;;;36.55;15.93;;;;;;;9.56;53.81;102925.94;4969914;28;20035;-68
2021/03/30 00:04:17;;;;;;;35.67;15.55;;;;;;;9.45;53.82;102921.94;4970369;28;20057;-68
2021/03/30 00:06:42;;;;;;;35.47;16.38;;;;;;;9.38;54.18;102926.09;4972455;28;20045;-68
2021/03/30 00:09:11;;;;;;;38.00;16.17;;;;;;;9.33;54.37;102919.69;5033820;28;20035;-68
2021/03/30 00:11:37;;;;;;;37.08;15.52;;;;;;;9.32;54.67;102934.66;4991478;28;20032;-68
2021/03/30 00:14:02;;;;;;;37.28;16.23;;;;;;;9.35;54.39;102934.78;4970092;28;20064;-68
2021/03/30 00:16:28;;;;;;;38.53;16.08;;;;;;;9.38;54.53;102932.25;5035470;28;20070;-68
2021/03/30 00:18:53;;;;;;;36.85;16.75;;;;;;;9.32;54.26;102937.28;5003394;28;20124;-67
2021/03/30 00:21:18;;;;;;;38.22;16.98;;;;;;;9.31;55.66;102930.19;4969711;28;20066;-68
2021/03/30 00:23:44;;;;;;;35.92;16.15;;;;;;;9.16;55.43;102918.97;4997865;28;20033;-67
2021/03/30 00:26:09;;;;;;;35.70;16.23;;;;;;;9.07;55.98;102920.41;4974086;28;20019;-68
2021/03/30 00:28:35;;;;;;;40.65;16.77;;;;;;;8.99;55.95;102921.78;4985723;28;20025;-68
2021/03/30 00:31:00;;;;;;;37.55;16.58;;;;;;;8.92;55.90;102924.09;4972300;28;20023;-68
2021/03/30 00:33:26;;;;;;;35.75;16.13;;;;;;;8.91;56.28;102917.91;5037200;28;20122;-67
2021/03/30 00:35:51;;;;;;;36.45;16.33;;;;;;;8.88;56.32;102920.41;5002773;28;20114;-68
2021/03/30 00:38:16;;;;;;;38.83;16.33;;;;;;;8.87;57.12;102916.88;4969054;28;20419;-68
2021/03/30 00:40:42;;;;;;;32.30;14.30;;;;;;;8.77;57.46;102919.03;5000719;28;20479;-68
2021/03/30 00:43:07;;;;;;;35.08;16.15;;;;;;;8.67;57.23;102930.91;4969593;28;20042;-68
2021/03/30 00:45:33;;;;;;;36.90;16.52;;;;;;;8.56;57.50;102927.75;4969348;28;20026;-67
2021/03/30 00:47:59;;;;;;;36.00;16.45;;;;;;;8.54;58.07;102918.91;4969355;28;20085;-67
2021/03/30 00:50:30;;;;;;;38.10;16.83;;;;;;;8.44;57.83;102924.53;4984738;28;20111;-68
2021/03/30 00:52:56;;;;;;;36.60;16.35;;;;;;;8.34;58.13;102918.84;4983788;28;20057;-68
2021/03/30 00:55:21;;;;;;;39.63;17.52;;;;;;;8.15;58.71;102916.16;4985367;28;20038;-68
2021/03/30 00:57:47;;;;;;;37.10;16.55;;;;;;;8.06;58.91;102921.91;5009181;28;20114;-68
2021/03/30 01:00:15;;;;;;;39.45;16.70;;;;;;;8.07;59.16;102918.44;4973994;28;20035;-67
2021/03/30 01:02:40;;;;;;;39.03;17.13;;;;;;;8.07;58.99;102917.53;4972433;28;20117;-68
2021/03/30 01:05:08;;;;;;;37.55;16.77;;;;;;;8.08;59.14;102920.28;4984033;28;20121;-68
2021/03/30 01:07:35;;;;;;;38.42;17.50;;;;;;;8.10;59.02;102918.59;4968412;28;20100;-68
2021/03/30 01:10:07;;;;;;;31.08;13.40;;;;;;;8.02;58.41;102910.34;4994790;28;20394;-68
2021/03/30 01:12:49;;;;;;;34.38;15.05;;;;;;;7.79;59.34;102913.56;4971542;28;20027;-68
2021/03/30 01:15:49;;;;;;;35.35;15.98;;;;;;;7.66;59.61;102926.16;4991885;28;20050;-67
2021/03/30 01:18:49;;;;;;;31.40;14.52;;;;;;;7.51;59.42;102925.38;4986652;28;20449;-68
2021/03/30 01:21:38;;;;;;;37.75;16.23;;;;;;;7.40;59.85;102922.22;5031441;28;20092;-68
2021/03/30 01:24:14;;;;;;;33.15;14.43;;;;;;;7.37;61.41;102926.41;5032058;28;20045;-68
2021/03/30 01:26:56;;;;;;;37.65;17.00;;;;;;;7.33;61.32;102921.00;5031702;28;20045;-69
2021/03/30 01:29:51;;;;;;;38.45;17.05;;;;;;;7.32;61.21;102928.81;5031860;28;20057;-67
2021/03/30 01:32:28;;;;;;;37.72;16.30;;;;;;;7.26;61.46;102925.88;5030485;28;20037;-68
2021/03/30 01:34:56;;;;;;;34.65;16.45;;;;;;;7.21;62.28;102927.34;5031363;28;20057;-68
2021/03/30 01:37:23;;;;;;;40.45;16.35;;;;;;;7.20;62.21;102918.56;5031287;28;20158;-68
2021/03/30 01:39:53;;;;;;;34.42;15.88;;;;;;;7.13;62.01;102921.69;5031634;28;20052;-68
2021/03/30 01:42:25;;;;;;;37.25;16.05;;;;;;;7.07;62.24;102921.38;5030557;28;20112;-68
2021/03/30 01:44:53;;;;;;;35.00;15.05;;;;;;;7.08;62.30;102924.09;5029963;28;20041;-67
2021/03/30 01:47:20;;;;;;;36.40;15.13;;;;;;;7.06;62.82;102923.13;5030232;28;20029;-68
2021/03/30 01:49:46;;;;;;;35.55;16.67;;;;;;;7.06;62.80;102919.56;5030232;28;20026;-68
2021/03/30 01:52:15;;;;;;;33.17;14.57;;;;;;;6.98;62.86;102920.06;5030602;28;20080;-68
2021/03/30 01:54:42;;;;;;;38.58;15.63;;;;;;;6.96;63.08;102913.84;5031445;28;20566;-68
2021/03/30 01:57:10;;;;;;;33.63;14.88;;;;;;;6.87;63.17;102912.47;5030967;28;20108;-68
2021/03/30 01:59:39;;;;;;;36.22;15.77;;;;;;;6.78;63.46;102908.50;5004767;28;20034;-68
2021/03/30 02:02:05;;;;;;;37.30;15.55;;;;;;;6.67;63.38;102908.78;4971090;28;20439;-67
2021/03/30 02:04:32;;;;;;;40.05;16.85;;;;;;;6.65;63.58;102913.94;5001906;28;20031;-68
2021/03/30 02:06:57;;;;;;;37.45;16.52;;;;;;;6.56;64.03;102916.09;4988925;28;20027;-67
2021/03/30 02:09:29;;;;;;;38.58;16.88;;;;;;;6.44;63.98;102917.22;4977364;28;20100;-67
2021/03/30 02:14:21;;;;;;;36.78;16.13;;;;;;;6.20;65.13;102922.03;4974449;28;20173;-68
2021/03/30 02:16:56;;;;;;;35.00;15.00;;;;;;;6.11;65.33;102919.78;4987522;28;20091;-68
2021/03/30 02:19:33;;;;;;;34.50;15.40;;;;;;;6.04;64.78;102915.06;4983023;28;20034;-69
2021/03/30 02:22:04;;;;;;;35.20;16.00;;;;;;;6.01;65.00;102919.22;4992872;28;20035;-68
2021/03/30 02:24:32;;;;;;;34.50;14.95;;;;;;;5.89;65.57;102922.00;4994265;28;20508;-69
2021/03/30 02:26:59;;;;;;;36.00;15.00;;;;;;;5.85;66.14;102913.03;4990041;28;20460;-68
2021/03/30 02:29:27;;;;;;;38.33;16.27;;;;;;;5.84;65.76;102913.88;4976096;28;20493;-68
2021/03/30 02:31:54;;;;;;;33.92;14.25;;;;;;;5.83;65.57;102912.06;4981591;28;20394;-67
2021/03/30 02:34:26;;;;;;;33.63;14.98;;;;;;;5.76;65.74;102908.19;4970884;28;20033;-70
2021/03/30 02:36:55;;;;;;;36.13;16.02;;;;;;;5.74;66.65;102914.19;4986809;28;20470;-68
2021/03/30 02:39:20;;;;;;;36.25;15.10;;;;;;;5.71;66.45;102912.28;5034265;28;20092;-70
2021/03/30 02:41:48;;;;;;;33.85;14.57;;;;;;;5.72;66.58;102910.53;4983981;28;20026;-69
2021/03/30 02:44:16;;;;;;;34.78;15.25;;;;;;;5.70;66.44;102904.31;4985354;28;20031;-68
2021/03/30 02:46:42;;;;;;;33.33;14.32;;;;;;;5.59;66.42;102902.00;4986398;28;20027;-69
2021/03/30 02:49:10;;;;;;;35.00;15.90;;;;;;;5.58;66.81;102910.66;4990090;28;20030;-68
2021/03/30 02:51:37;;;;;;;37.67;16.83;;;;;;;5.60;68.22;102905.50;5039496;28;20149;-68
2021/03/30 02:54:03;;;;;;;36.90;15.63;;;;;;;5.61;67.50;102907.31;4974089;28;20035;-68
2021/03/30 02:56:30;;;;;;;35.75;15.63;;;;;;;5.65;67.52;102913.63;4977522;28;20110;-68
2021/03/30 02:58:56;;;;;;;36.90;16.50;;;;;;;5.60;67.09;102913.38;4984862;28;20023;-69
2021/03/30 03:01:22;;;;;;;32.97;14.20;;;;;;;5.57;66.87;102916.72;5036421;28;20508;-68
2021/03/30 03:03:50;;;;;;;33.95;15.10;;;;;;;5.58;66.97;102917.66;4987212;28;20053;-67
2021/03/30 03:06:16;;;;;;;34.45;14.68;;;;;;;5.54;67.37;102916.53;4980111;28;20041;-68
2021/03/30 03:08:42;;;;;;;34.50;16.10;;;;;;;5.45;67.75;102904.63;5036662;28;20019;-70
2021/03/30 03:11:09;;;;;;;35.70;15.25;;;;;;;5.42;67.66;102907.97;5038533;28;20043;-68
2021/03/30 03:13:37;;;;;;;36.17;15.82;;;;;;;5.38;67.65;102900.75;5000798;28;20036;-68
2021/03/30 03:16:02;;;;;;;35.97;15.82;;;;;;;5.34;68.71;102906.63;4989191;28;20015;-69
2021/03/30 03:18:28;;;;;;;38.95;16.75;;;;;;;5.30;68.94;102904.63;4984521;28;20051;-68
2021/03/30 03:20:54;;;;;;;34.90;14.82;;;;;;;5.24;68.59;102908.72;4986698;28;20026;-69
2021/03/30 03:23:19;;;;;;;39.78;16.88;;;;;;;5.24;69.01;102907.78;4971920;28;20023;-68
2021/03/30 03:25:46;;;;;;;38.35;16.30;;;;;;;5.22;68.95;102902.44;5033860;28;20527;-68
2021/03/30 03:28:12;;;;;;;37.42;17.40;;;;;;;5.27;68.97;102909.69;4971089;28;20027;-68
2021/03/30 03:30:39;;;;;;;37.80;16.33;;;;;;;5.23;68.58;102898.13;4990096;28;20027;-69
2021/03/30 03:33:06;;;;;;;35.17;14.65;;;;;;;5.20;68.58;102909.34;4995018;28;20397;-70
2021/03/30 03:35:31;;;;;;;36.92;15.55;;;;;;;5.14;68.42;102903.72;4980274;28;20032;-68
2021/03/30 03:37:57;;;;;;;34.55;15.13;;;;;;;5.02;67.95;102918.72;4972046;28;20117;-68
2021/03/30 03:40:22;;;;;;;37.28;15.82;;;;;;;4.86;68.26;102915.19;5037215;28;20117;-68
2021/03/30 03:42:47;;;;;;;36.42;16.13;;;;;;;4.68;69.37;102912.31;4986126;28;20104;-69
2021/03/30 03:45:13;;;;;;;36.60;16.15;;;;;;;4.54;69.47;102913.19;4970143;28;20062;-68
2021/03/30 03:47:38;;;;;;;37.92;16.63;;;;;;;4.49;70.38;102909.41;4975845;28;20031;-67
2021/03/30 03:50:04;;;;;;;38.53;17.02;;;;;;;4.51;70.37;102911.31;5003164;28;20103;-67
2021/03/30 03:52:35;;;;;;;38.45;16.58;;;;;;;4.53;70.88;102911.41;4980021;28;20064;-67
2021/03/30 03:55:03;;;;;;;38.38;17.20;;;;;;;4.50;70.66;102917.34;4986070;28;20030;-68
2021/03/30 03:57:34;;;;;;;36.95;16.38;;;;;;;4.45;70.28;102916.13;4969508;28;20031;-67
2021/03/30 04:00:00;;;;;;;38.03;16.92;;;;;;;4.42;70.76;102915.94;4986910;28;20459;-67
2021/03/30 04:02:28;;;;;;;37.85;16.67;;;;;;;4.39;70.79;102918.38;4968658;28;20041;-67
2021/03/30 04:05:01;;;;;;;37.17;16.70;;;;;;;4.36;70.44;102924.31;4982792;28;20109;-67
2021/03/30 04:07:30;;;;;;;36.08;15.45;;;;;;;4.30;69.51;102923.06;4995088;28;20030;-67
2021/03/30 04:09:57;;;;;;;38.00;16.40;;;;;;;4.19;69.93;102920.66;4967981;28;20113;-67
2021/03/30 04:12:25;;;;;;;38.85;16.10;;;;;;;4.07;70.71;102924.19;4969982;28;20027;-67
2021/03/30 04:14:51;;;;;;;37.42;15.80;;;;;;;3.99;71.02;102921.06;4979449;28;20143;-68
2021/03/30 04:17:17;;;;;;;36.38;16.15;;;;;;;3.92;70.48;102926.75;4999568;28;20411;-67
2021/03/30 04:19:46;;;;;;;34.72;15.70;;;;;;;3.82;70.88;102933.97;4969510;28;20047;-67
2021/03/30 04:22:13;;;;;;;37.15;16.17;;;;;;;3.80;70.99;102930.38;5000971;28;20074;-67
2021/03/30 04:24:40;;;;;;;42.15;23.45;;;;;;;3.76;70.97;102938.81;4970797;28;20027;-67
2021/03/30 04:27:10;;;;;;;36.30;15.88;;;;;;;3.78;70.99;102936.31;4971545;28;20428;-67
2021/03/30 04:29:36;;;;;;;36.53;16.25;;;;;;;3.76;71.08;102927.47;5001925;28;20117;-67
2021/03/30 04:32:02;;;;;;;40.50;17.10;;;;;;;3.68;71.44;102934.78;4985172;28;20112;-67
2021/03/30 04:34:27;;;;;;;41.38;17.45;;;;;;;3.58;72.76;102934.97;4975895;28;20126;-67
2021/03/30 04:36:53;;;;;;;41.55;17.80;;;;;;;3.56;73.40;102936.59;4972419;28;20027;-67
2021/03/30 04:39:18;;;;;;;39.53;16.45;;;;;;;3.47;73.54;102937.78;5003013;28;20092;-68
2021/03/30 04:41:43;;;;;;;38.97;16.80;;;;;;;3.46;73.15;102933.34;4969842;28;20084;-67
2021/03/30 04:44:09;;;;;;;38.45;16.42;;;;;;;3.45;72.34;102939.41;5002566;28;20031;-67
2021/03/30 04:46:34;;;;;;;37.97;16.60;;;;;;;3.44;72.18;102939.31;4969491;28;20522;-67
2021/03/30 04:48:59;;;;;;;37.03;16.17;;;;;;;3.36;73.11;102946.63;4972980;28;20474;-67
2021/03/30 04:51:25;;;;;;;38.30;16.08;;;;;;;3.28;73.40;102942.59;4991655;28;20031;-67
2021/03/30 04:53:50;;;;;;;39.67;17.00;;;;;;;3.28;74.42;102940.00;4988915;28;20027;-67
2021/03/30 04:56:15;;;;;;;37.45;16.05;;;;;;;3.31;73.79;102948.03;4991937;28;20026;-67
2021/03/30 04:58:40;;;;;;;36.10;15.43;;;;;;;3.28;73.24;102940.88;4984466;28;20461;-67
2021/03/30 05:01:06;;;;;;;36.03;16.10;;;;;;;3.27;73.45;102939.06;4992552;28;20106;-67
2021/03/30 05:03:31;;;;;;;36.10;15.68;;;;;;;3.21;73.61;102946.50;5011457;28;20374;-67
2021/03/30 05:05:56;;;;;;;39.10;16.75;;;;;;;3.12;74.34;102944.16;5005257;28;20016;-67
2021/03/30 05:08:22;;;;;;;39.00;16.58;;;;;;;3.06;74.44;102959.44;4974279;28;20023;-67
2021/03/30 05:10:50;;;;;;;40.50;16.38;;;;;;;3.00;74.97;102953.78;4972168;28;20096;-67
2021/03/30 05:13:15;;;;;;;36.28;16.55;;;;;;;2.98;74.91;102960.59;5004270;28;20024;-67
2021/03/30 05:15:41;;;;;;;36.45;16.20;;;;;;;2.90;74.81;102949.63;4974111;28;20472;-67
2021/03/30 05:18:06;;;;;;;40.15;16.02;;;;;;;2.88;75.07;102961.66;5038547;28;20038;-67
2021/03/30 05:20:31;;;;;;;40.05;17.08;;;;;;;2.90;75.50;102977.47;4972756;28;20112;-67
2021/03/30 05:22:56;;;;;;;39.38;17.25;;;;;;;2.84;75.66;102980.56;5005845;28;20042;-68
2021/03/30 05:25:22;;;;;;;40.80;17.58;;;;;;;2.84;76.30;102977.94;4971315;28;20053;-67
2021/03/30 05:27:47;;;;;;;41.78;17.80;;;;;;;2.91;75.87;102969.75;4988321;28;20025;-67
2021/03/30 05:30:13;;;;;;;41.08;17.48;;;;;;;2.95;75.78;102970.84;4975919;28;20027;-67
2021/03/30 05:32:38;;;;;;;38.78;17.42;;;;;;;3.01;75.37;102972.97;5055795;28;20115;-67
2021/03/30 05:35:09;;;;;;;37.00;15.75;;;;;;;3.00;74.62;102969.47;5038815;28;20065;-68
2021/03/30 05:37:34;;;;;;;38.10;16.27;;;;;;;3.01;74.53;102972.97;5006504;28;20049;-68
2021/03/30 05:40:00;;;;;;;37.45;16.02;;;;;;;2.99;74.26;102978.09;4989071;28;20475;-67
2021/03/30 05:42:26;;;;;;;38.95;16.45;;;;;;;2.98;74.48;102976.28;4972128;28;20066;-67
2021/03/30 05:44:52;;;;;;;38.80;16.63;;;;;;;2.98;74.94;102989.34;4991474;28;20059;-67
2021/03/30 05:47:20;;;;;;;44.38;17.35;;;;;;;3.00;74.84;102989.44;4986442;28;20076;-68
2021/03/30 05:49:47;;;;;;;39.03;17.05;;;;;;;3.04;74.39;102983.63;4991031;28;20039;-67
2021/03/30 05:52:19;;;;;;;39.08;16.30;;;;;;;3.11;74.91;102997.22;4993120;28;20435;-66
2021/03/30 05:54:46;;;;;;;44.25;17.30;;;;;;;3.17;74.85;102998.47;4996068;28;20373;-66
2021/03/30 05:57:14;;;;;;;38.08;16.50;;;;;;;3.23;74.56;102998.88;4976401;28;20069;-66
2021/03/30 05:59:49;;;;;;;37.13;16.05;;;;;;;3.28;74.45;102998.41;4970936;28;20377;-66
2021/03/30 06:02:21;;;;;;;38.70;16.70;;;;;;;3.29;74.05;103002.84;4969677;28;20359;-67
2021/03/30 06:04:47;;;;;;;43.08;18.05;;;;;;;3.36;74.83;103003.25;4971424;28;20093;-67
2021/03/30 06:07:13;;;;;;;39.20;16.90;;;;;;;3.40;75.13;103008.78;5037116;28;20034;-67
2021/03/30 06:09:43;;;;;;;41.33;16.63;;;;;;;3.45;74.91;103010.03;4990758;28;20043;-68
2021/03/30 06:12:11;;;;;;;42.03;17.88;;;;;;;3.52;75.78;103005.19;4988331;28;20027;-67
2021/03/30 06:14:44;;;;;;;42.65;18.70;;;;;;;3.63;75.43;103010.34;5002540;28;20052;-68
2021/03/30 06:17:13;;;;;;;42.78;18.00;;;;;;;3.77;75.15;103012.97;4988927;28;20545;-68
2021/03/30 06:19:57;;;;;;;44.17;17.73;;;;;;;3.88;74.47;103017.22;4971320;28;20034;-67
2021/03/30 06:22:25;;;;;;;42.58;17.85;;;;;;;3.96;76.33;103022.94;4986052;28;20379;-68
2021/03/30 06:24:53;;;;;;;43.13;17.65;;;;;;;4.02;76.06;103020.75;4972152;28;20436;-67
2021/03/30 06:27:29;;;;;;;39.22;18.13;;;;;;;4.10;76.23;103021.25;4997367;28;20106;-69
2021/03/30 06:29:58;;;;;;;40.88;18.63;;;;;;;4.18;75.65;103020.06;4978259;28;20031;-69
2021/03/30 06:32:25;;;;;;;42.92;18.55;;;;;;;4.26;75.58;103020.53;5019152;28;20023;-68
2021/03/30 06:35:08;;;;;;;40.80;18.33;;;;;;;4.36;75.01;103022.94;4979931;28;20466;-69
2021/03/30 06:37:39;;;;;;;43.20;18.75;;;;;;;4.48;75.18;103021.09;4995177;28;20477;-68
2021/03/30 06:40:10;;;;;;;41.50;18.70;;;;;;;4.64;74.58;103022.09;5011081;28;20106;-67
2021/03/30 06:42:46;;;;;;;41.63;18.10;;;;;;;4.79;75.20;103023.06;4992185;28;20081;-68
2021/03/30 06:45:14;;;;;;;44.80;20.60;;;;;;;4.96;75.13;103028.44;4998553;28;20212;-68
2021/03/30 06:47:40;;;;;;;43.38;19.17;;;;;;;5.12;75.08;103031.19;4991566;28;20039;-68
2021/03/30 06:50:16;;;;;;;41.40;18.75;;;;;;;5.28;74.31;103029.53;4985785;28;20391;-68
2021/03/30 06:52:41;;;;;;;42.70;19.10;;;;;;;5.39;74.68;103029.34;5041634;28;20395;-68
2021/03/30 06:55:13;;;;;;;44.35;19.70;;;;;;;5.55;75.02;103032.91;4974664;28;20018;-68
2021/03/30 06:57:41;;;;;;;50.38;20.15;;;;;;;5.71;75.05;103034.72;4974208;28;20049;-69
2021/03/30 07:00:08;;;;;;;43.50;20.25;;;;;;;5.86;74.15;103022.50;4989298;28;20026;-68
2021/03/30 07:02:35;;;;;;;45.55;20.48;;;;;;;6.14;73.50;103021.50;4988085;28;20034;-68
2021/03/30 07:05:01;;;;;;;42.83;19.83;;;;;;;6.34;72.43;103022.63;5000513;28;20451;-68
2021/03/30 07:07:27;;;;;;;42.55;20.42;;;;;;;6.57;71.44;103030.91;4993958;28;20028;-69
2021/03/30 07:09:53;;;;;;;43.83;20.05;;;;;;;6.78;71.15;103036.44;4985021;28;20128;-68
2021/03/30 07:12:23;;;;;;;43.30;20.02;;;;;;;6.97;69.82;103031.38;4971199;28;20481;-68
2021/03/30 07:14:50;;;;;;;44.15;20.83;;;;;;;7.22;68.75;103031.75;4966886;28;20023;-68
2021/03/30 07:17:30;;;;;;;42.55;20.15;;;;;;;7.45;67.65;103041.75;4977348;28;20050;-67
2021/03/30 07:20:00;;;;;;;43.92;20.38;;;;;;;7.78;66.30;103046.06;4970892;28;20030;-68
2021/03/30 07:22:27;;;;;;;43.15;20.13;;;;;;;8.05;65.25;103037.75;4988305;28;20379;-68
2021/03/30 07:25:04;;;;;;;42.92;20.50;;;;;;;8.26;64.53;103049.34;4971571;28;20031;-68
2021/03/30 07:27:42;;;;;;;46.28;19.83;;;;;;;8.48;63.43;103053.06;4968723;28;20074;-71
2021/03/30 07:30:11;;;;;;;41.53;18.90;;;;;;;8.68;62.64;103051.38;5001622;28;20024;-70
2021/03/30 07:32:50;;;;;;;43.35;18.67;;;;;;;8.93;61.54;103052.50;4980262;28;20020;-70
2021/03/30 07:35:21;;;;;;;41.05;18.83;;;;;;;9.09;60.98;103052.38;4993585;28;20031;-69
2021/03/30 07:38:19;;;;;;;40.10;19.27;;;;;;;9.28;61.09;103050.59;4967998;28;20027;-69
2021/03/30 07:40:45;;;;;;;39.95;17.52;;;;;;;9.47;58.42;103049.66;4980712;28;20049;-70
2021/03/30 07:43:28;;;;;;;41.60;18.60;;;;;;;9.77;59.56;103063.28;4988923;28;20088;-70
2021/03/30 07:45:55;;;;;;;;;;;;;;;9.98;59.93;103059.75;4989336;28;20023;-69
2021/03/30 07:48:23;;;;;;;41.38;18.00;;;;;;;10.31;55.41;103057.63;5001349;28;19910;-69
2021/03/30 07:51:04;;;;;;;38.00;18.50;;;;;;;10.60;56.44;103044.66;4973789;28;20101;-69
2021/03/30 07:53:41;;;;;;;40.13;18.75;;;;;;;10.89;55.71;103047.53;4990568;28;20038;-71
2021/03/30 07:56:11;;;;;;;41.65;18.38;;;;;;;11.11;53.88;103043.94;4986050;28;20378;-70
2021/03/30 07:58:44;;;;;;;39.60;18.67;;;;;;;11.33;52.78;103051.84;4968193;28;20050;-68
2021/03/30 08:01:11;;;;;;;40.95;19.20;;;;;;;11.54;53.71;103049.91;4983118;28;20076;-68
2021/03/30 08:03:38;;;;;;;38.70;18.38;;;;;;;11.70;51.50;103054.91;4980349;28;20035;-68
2021/03/30 08:06:22;;;;;;;39.38;17.70;;;;;;;11.86;53.34;103059.88;4975734;28;20516;-68
2021/03/30 08:09:04;;;;;;;42.20;18.58;;;;;;;11.92;51.94;103059.19;4981932;28;20031;-69
2021/03/30 08:11:51;;;;;;;38.58;17.77;;;;;;;12.02;52.02;103055.13;4987735;28;20499;-71
2021/03/30 08:14:16;;;;;;;39.92;18.05;;;;;;;12.18;50.00;103052.13;4967277;28;20037;-70
2021/03/30 08:16:42;;;;;;;39.22;18.25;;;;;;;12.45;50.09;103059.19;4991106;28;20034;-70
2021/03/30 08:19:13;;;;;;;40.92;18.33;;;;;;;12.73;48.78;103054.75;4970771;28;20051;-69
2021/03/30 08:22:05;;;;;;;40.58;18.23;;;;;;;12.88;49.95;103056.94;4999913;28;20036;-68
2021/03/30 08:24:46;;;;;;;40.67;18.50;;;;;;;13.14;48.12;103056.81;5051054;28;20035;-68
2021/03/30 08:27:37;;;;;;;41.05;19.30;;;;;;;13.33;47.80;103059.13;4993784;28;20082;-67
2021/03/30 08:30:15;;;;;;;40.20;18.30;;;;;;;13.53;47.61;103051.75;4969693;28;20508;-68
2021/03/30 08:32:45;;;;;;;41.85;19.48;;;;;;;13.79;46.99;103059.53;4984303;28;20046;-68
2021/03/30 08:35:31;;;;;;;42.85;18.83;;;;;;;14.01;46.66;103053.00;4968832;28;20061;-67
2021/03/30 08:37:58;;;;;;;43.22;19.50;;;;;;;14.35;46.32;103050.25;4984212;28;20364;-67
2021/03/30 08:40:35;;;;;;;40.40;19.88;;;;;;;14.87;46.30;103053.22;4984366;28;20023;-69
2021/03/30 08:43:20;;;;;;;44.55;19.58;;;;;;;15.37;46.56;103055.13;4999413;28;20074;-68
2021/03/30 08:46:08;;;;;;;42.50;19.77;;;;;;;15.59;45.83;103064.44;4984361;28;20466;-68
2021/03/30 08:48:35;;;;;;;46.03;19.58;;;;;;;15.92;42.36;103053.50;4981224;28;20026;-68
2021/03/30 08:51:04;;;;;;;41.53;19.90;;;;;;;16.32;41.62;103048.78;4968812;28;20035;-71
2021/03/30 08:53:30;;;;;;;40.67;19.60;;;;;;;16.86;39.90;103052.25;4997181;28;20034;-72
2021/03/30 08:55:56;;;;;;;41.38;20.15;;;;;;;17.46;38.73;103060.13;4986065;28;20023;-70
2021/03/30 08:58:26;;;;;;;43.15;20.23;;;;;;;18.00;38.49;103043.69;4969297;28;20068;-71
2021/03/30 09:00:54;;;;;;;44.95;21.08;;;;;;;18.12;36.58;103055.38;4968632;28;20069;-72
2021/03/30 09:03:28;;;;;;;42.13;20.48;;;;;;;18.25;37.85;103044.78;4978315;28;20035;-71
2021/03/30 09:05:53;;;;;;;43.50;20.42;;;;;;;18.87;36.50;103043.38;4999608;28;20061;-70
2021/03/30 09:08:41;;;;;;;42.88;20.67;;;;;;;19.61;35.35;103040.00;4993478;28;20056;-71
2021/03/30 09:11:14;;;;;;;41.95;21.05;;;;;;;19.99;35.56;103041.84;4984229;28;20546;-73
2021/03/30 09:13:39;;;;;;;42.72;20.85;;;;;;;20.68;34.09;103043.56;4985416;28;20031;-72
2021/03/30 09:16:09;;;;;;;41.92;20.10;;;;;;;21.32;32.15;103039.69;4967150;28;20027;-69
2021/03/30 09:18:35;;;;;;;39.60;19.25;;;;;;;21.98;30.41;103043.69;4984299;28;20112;-70
2021/03/30 09:21:09;;;;;;;41.50;19.63;;;;;;;21.98;33.01;103054.47;4983215;28;20416;-70
2021/03/30 09:23:36;;;;;;;40.05;20.15;;;;;;;22.19;31.71;103047.09;5004149;28;20034;-70
2021/03/30 09:26:12;;;;;;;42.20;20.48;;;;;;;22.68;32.01;103045.72;4986936;28;20019;-71
2021/03/30 09:28:40;;;;;;;40.10;19.88;;;;;;;23.03;29.07;103047.06;4969173;28;20474;-71
2021/03/30 09:31:05;;;;;;;40.00;19.63;;;;;;;23.35;28.47;103052.03;4984264;28;20494;-71
2021/03/30 09:33:31;;;;;;;39.25;19.88;;;;;;;23.51;27.19;103050.00;4984897;28;20023;-74
2021/03/30 09:36:00;;;;;;;40.45;20.00;;;;;;;23.63;27.60;103047.09;4983799;28;20024;-75
2021/03/30 09:38:26;;;;;;;39.20;19.90;;;;;;;24.06;27.38;103047.31;4969600;28;20069;-74
2021/03/30 09:40:51;;;;;;;41.05;21.05;;;;;;;24.17;25.21;103042.63;4975521;28;20378;-70
2021/03/30 09:43:17;;;;;;;39.05;20.48;;;;;;;24.39;25.42;103045.81;4982800;28;20023;-72
2021/03/30 09:45:44;;;;;;;40.10;20.88;;;;;;;24.05;24.53;103051.84;4969344;28;20026;-72
2021/03/30 09:48:11;;;;;;;40.42;20.88;;;;;;;24.02;25.95;103041.97;4992942;28;20133;-72
2021/03/30 09:50:45;;;;;;;39.58;20.63;;;;;;;24.57;25.14;103041.88;4989996;28;20023;-68
2021/03/30 09:53:11;;;;;;;39.15;20.67;;;;;;;25.25;23.94;103043.13;4970698;28;20602;-71
2021/03/30 09:55:39;;;;;;;41.10;20.60;;;;;;;25.33;23.25;103038.47;5040440;28;20023;-71
2021/03/30 09:58:12;;;;;;;40.90;20.92;;;;;;;25.57;23.65;103038.81;4988751;28;20052;-71
2021/03/30 10:00:56;;;;;;;41.90;20.45;;;;;;;25.88;23.89;103038.94;4992085;28;20026;-71
2021/03/30 10:03:23;;;;;;;37.97;19.98;;;;;;;26.50;21.32;103037.28;4988095;28;20512;-67
2021/03/30 10:05:49;;;;;;;37.25;20.02;;;;;;;26.53;21.55;103031.81;4971822;28;20026;-68
2021/03/30 10:08:22;;;;;;;37.33;20.17;;;;;;;26.61;21.55;103023.44;4971480;28;20050;-67
2021/03/30 10:10:49;;;;;;;36.80;18.17;;;;;;;26.77;22.32;103030.22;5003888;28;20041;-69
2021/03/30 10:13:30;;;;;;;37.40;18.92;;;;;;;26.53;23.21;103014.63;4990217;28;20020;-68
2021/03/30 10:15:58;;;;;;;36.70;19.67;;;;;;;26.57;20.15;103011.78;4971034;28;20035;-69
2021/03/30 10:18:26;;;;;;;34.88;18.17;;;;;;;26.71;21.07;103005.13;4985816;28;20047;-69
2021/03/30 10:20:58;;;;;;;35.47;18.85;;;;;;;27.08;20.08;103012.97;4971853;28;20389;-70
2021/03/30 10:23:26;;;;;;;;;;;;;;;27.88;18.52;103016.75;5003153;28;20061;-70
2021/03/30 10:25:52;;;;;;;35.08;17.23;;;;;;;27.66;19.52;103009.34;4971974;28;19914;-68
2021/03/30 10:28:31;;;;;;;34.47;16.90;;;;;;;28.42;20.17;103014.84;4983284;28;20119;-67
2021/03/30 10:31:02;;;;;;;33.13;16.40;;;;;;;29.04;17.58;103010.69;4972195;28;20034;-70
2021/03/30 10:33:41;;;;;;;35.90;17.45;;;;;;;28.80;19.55;103005.25;4983191;28;20107;-70
2021/03/30 10:36:13;;;;;;;36.30;17.55;;;;;;;28.98;18.73;103013.63;4970550;28;20023;-68
2021/03/30 10:38:39;;;;;;;;;;;;;;;29.43;18.89;103007.31;4990572;28;20048;-72
2021/03/30 10:41:10;;;;;;;31.77;14.43;;;;;;;29.86;16.49;103016.38;4971102;28;20345;-70
2021/03/30 10:43:37;;;;;;;31.45;14.82;;;;;;;30.05;17.00;103004.69;4986544;28;20114;-72
2021/03/30 10:46:18;;;;;;;32.60;15.32;;;;;;;30.00;18.15;102994.00;4975365;28;20230;-70
2021/03/30 10:49:06;;;;;;;31.63;15.77;;;;;;;30.42;17.03;103000.31;4988158;28;20031;-70
2021/03/30 10:51:33;;;;;;;31.15;15.20;;;;;;;30.65;15.65;102991.03;4993806;28;20496;-72
2021/03/30 10:54:00;;;;;;;30.80;15.02;;;;;;;31.07;15.54;102994.53;4971149;28;20393;-76
2021/03/30 10:56:27;;;;;;;29.20;14.13;;;;;;;31.71;13.51;102989.53;4970807;28;20469;-73
2021/03/30 10:58:52;;;;;;;34.58;16.23;;;;;;;31.88;14.38;102989.53;4976101;28;20384;-73
2021/03/30 11:01:18;;;;;;;31.95;16.15;;;;;;;31.76;14.47;102991.06;4999266;28;20021;-71
2021/03/30 11:03:43;;;;;;;31.70;16.15;;;;;;;31.65;13.68;102987.13;4971673;28;20115;-71
2021/03/30 11:06:09;;;;;;;32.53;15.95;;;;;;;31.65;14.76;102985.28;4990119;28;20023;-73
2021/03/30 11:08:34;;;;;;;30.90;15.57;;;;;;;31.98;14.46;102968.94;4987138;28;20077;-70
2021/03/30 11:11:00;;;;;;;34.03;16.63;;;;;;;32.05;14.64;102972.22;4996309;28;20381;-70
2021/03/30 11:13:25;;;;;;;31.10;14.32;;;;;;;32.42;13.60;102969.38;4975379;28;20030;-71
2021/03/30 11:15:51;;;;;;;31.27;15.45;;;;;;;31.86;13.64;102964.13;4993130;28;20030;-72
2021/03/30 11:18:16;;;;;;;30.58;15.00;;;;;;;30.80;14.53;102953.97;4998432;28;20116;-70
2021/03/30 11:20:42;;;;;;;29.95;14.07;;;;;;;31.11;13.86;102952.47;4990213;28;20016;-71
2021/03/30 11:23:07;;;;;;;29.35;13.27;;;;;;;31.80;12.37;102948.94;4969487;28;20054;-70
2021/03/30 11:25:33;;;;;;;31.35;14.07;;;;;;;32.61;13.20;102950.06;4970229;28;20458;-69
2021/03/30 11:28:04;;;;;;;30.05;14.55;;;;;;;33.34;13.62;102949.53;4973991;28;20026;-72